sensor_id;sensor_type;location;lat;lon;timestamp;pressure;altitude;pressure_sealevel;temperature;humidity
49463;BME280;35357;51.722;0.500;2023-06-26T00:00:04;101244.74;;;16.68;69.65
49463;BME280;35357;51.722;0.500;2023-06-26T00:02:32;101245.07;;;16.65;69.93
49463;BME280;35357;51.722;0.500;2023-06-26T00:04:59;101242.81;;;17.01;68.27
49463;BME280;35357;51.722;0.500;2023-06-26T00:07:26;101249.06;;;16.67;69.96
49463;BME280;35357;51.722;0.500;2023-06-26T00:09:53;101260.27;;;16.57;71.21
49463;BME280;35357;51.722;0.500;2023-06-26T00:12:19;101260.51;;;15.87;73.42
49463;BME280;35357;51.722;0.500;2023-06-26T00:14:46;101262.10;;;16.05;73.85
49463;BME280;35357;51.722;0.500;2023-06-26T00:17:13;101262.88;;;16.10;74.30
49463;BME280;35357;51.722;0.500;2023-06-26T00:19:40;101263.90;;;16.99;70.11
49463;BME280;35357;51.722;0.500;2023-06-26T00:22:07;101267.50;;;16.86;70.58
49463;BME280;35357;51.722;0.500;2023-06-26T00:24:34;101270.65;;;16.48;71.67
49463;BME280;35357;51.722;0.500;2023-06-26T00:27:01;101267.97;;;17.07;70.08
49463;BME280;35357;51.722;0.500;2023-06-26T00:29:27;101271.54;;;16.23;73.50
49463;BME280;35357;51.722;0.500;2023-06-26T00:31:54;101269.04;;;15.56;75.61
49463;BME280;35357;51.722;0.500;2023-06-26T00:34:21;101270.71;;;15.87;75.07
49463;BME280;35357;51.722;0.500;2023-06-26T00:36:48;101273.26;;;15.93;74.62
49463;BME280;35357;51.722;0.500;2023-06-26T00:39:16;101270.60;;;17.56;70.00
49463;BME280;35357;51.722;0.500;2023-06-26T00:41:43;101274.54;;;16.16;73.46
49463;BME280;35357;51.722;0.500;2023-06-26T00:44:10;101276.16;;;16.55;72.04
49463;BME280;35357;51.722;0.500;2023-06-26T00:46:36;101274.60;;;17.04;69.64
49463;BME280;35357;51.722;0.500;2023-06-26T00:49:04;101279.51;;;17.22;69.34
49463;BME280;35357;51.722;0.500;2023-06-26T00:51:31;101278.79;;;16.95;69.56
49463;BME280;35357;51.722;0.500;2023-06-26T00:53:59;101282.55;;;16.72;71.51
49463;BME280;35357;51.722;0.500;2023-06-26T00:56:26;101282.16;;;15.43;75.63
49463;BME280;35357;51.722;0.500;2023-06-26T00:58:54;101283.85;;;16.76;72.02
49463;BME280;35357;51.722;0.500;2023-06-26T01:01:21;101283.87;;;16.62;71.54
49463;BME280;35357;51.722;0.500;2023-06-26T01:03:49;101285.92;;;16.44;73.31
49463;BME280;35357;51.722;0.500;2023-06-26T01:06:17;101290.10;;;15.84;76.59
49463;BME280;35357;51.722;0.500;2023-06-26T01:08:44;101293.57;;;15.75;77.07
49463;BME280;35357;51.722;0.500;2023-06-26T01:11:13;101291.77;;;15.87;77.09
49463;BME280;35357;51.722;0.500;2023-06-26T01:13:42;101293.37;;;15.41;77.76
49463;BME280;35357;51.722;0.500;2023-06-26T01:16:09;101291.67;;;15.60;77.53
49463;BME280;35357;51.722;0.500;2023-06-26T01:18:38;101298.99;;;15.96;76.37
49463;BME280;35357;51.722;0.500;2023-06-26T01:21:08;101300.52;;;16.51;74.95
49463;BME280;35357;51.722;0.500;2023-06-26T01:23:39;101301.56;;;17.10;73.21
49463;BME280;35357;51.722;0.500;2023-06-26T01:26:15;101300.77;;;16.44;74.71
49463;BME280;35357;51.722;0.500;2023-06-26T01:28:44;101309.47;;;15.09;79.94
49463;BME280;35357;51.722;0.500;2023-06-26T01:31:12;101311.11;;;15.03;81.08
49463;BME280;35357;51.722;0.500;2023-06-26T01:33:41;101314.70;;;15.50;80.60
49463;BME280;35357;51.722;0.500;2023-06-26T01:36:08;101316.23;;;15.72;78.59
49463;BME280;35357;51.722;0.500;2023-06-26T01:38:36;101319.66;;;16.14;77.84
49463;BME280;35357;51.722;0.500;2023-06-26T01:41:03;101319.15;;;15.86;79.42
49463;BME280;35357;51.722;0.500;2023-06-26T01:43:39;101321.25;;;15.78;78.87
49463;BME280;35357;51.722;0.500;2023-06-26T01:46:14;101326.31;;;15.98;78.42
49463;BME280;35357;51.722;0.500;2023-06-26T01:48:49;101330.89;;;14.39;83.93
49463;BME280;35357;51.722;0.500;2023-06-26T01:51:18;101327.30;;;15.89;79.24
49463;BME280;35357;51.722;0.500;2023-06-26T01:53:53;101331.61;;;15.66;80.37
49463;BME280;35357;51.722;0.500;2023-06-26T01:56:22;101332.14;;;15.38;78.88
49463;BME280;35357;51.722;0.500;2023-06-26T01:58:51;101334.07;;;14.95;80.67
49463;BME280;35357;51.722;0.500;2023-06-26T02:01:18;101337.83;;;15.82;78.00
49463;BME280;35357;51.722;0.500;2023-06-26T02:03:45;101339.96;;;16.88;74.19
49463;BME280;35357;51.722;0.500;2023-06-26T02:06:12;101341.94;;;16.35;75.36
49463;BME280;35357;51.722;0.500;2023-06-26T02:08:40;101344.09;;;15.77;77.74
49463;BME280;35357;51.722;0.500;2023-06-26T02:11:07;101342.48;;;15.72;78.37
49463;BME280;35357;51.722;0.500;2023-06-26T02:13:33;101347.13;;;15.43;80.30
49463;BME280;35357;51.722;0.500;2023-06-26T02:16:00;101346.11;;;15.90;78.13
49463;BME280;35357;51.722;0.500;2023-06-26T02:18:27;101341.10;;;15.53;80.72
49463;BME280;35357;51.722;0.500;2023-06-26T02:20:54;101338.22;;;15.91;78.82
49463;BME280;35357;51.722;0.500;2023-06-26T02:23:21;101340.26;;;16.48;75.93
49463;BME280;35357;51.722;0.500;2023-06-26T02:25:48;101339.60;;;14.82;81.45
49463;BME280;35357;51.722;0.500;2023-06-26T02:28:15;101341.02;;;15.09;81.06
49463;BME280;35357;51.722;0.500;2023-06-26T02:30:41;101347.35;;;14.86;83.09
49463;BME280;35357;51.722;0.500;2023-06-26T02:33:08;101340.96;;;15.08;83.12
49463;BME280;35357;51.722;0.500;2023-06-26T02:35:35;101346.47;;;14.30;84.72
49463;BME280;35357;51.722;0.500;2023-06-26T02:38:03;101345.24;;;15.34;81.76
49463;BME280;35357;51.722;0.500;2023-06-26T02:40:30;101342.71;;;15.33;81.50
49463;BME280;35357;51.722;0.500;2023-06-26T02:42:57;101347.62;;;15.81;80.37
49463;BME280;35357;51.722;0.500;2023-06-26T02:45:24;101355.62;;;14.61;83.80
49463;BME280;35357;51.722;0.500;2023-06-26T02:47:50;101352.66;;;15.51;81.73
49463;BME280;35357;51.722;0.500;2023-06-26T02:50:17;101354.93;;;15.13;82.14
49463;BME280;35357;51.722;0.500;2023-06-26T02:52:44;101359.48;;;14.68;84.02
49463;BME280;35357;51.722;0.500;2023-06-26T02:55:11;101356.79;;;14.33;85.16
49463;BME280;35357;51.722;0.500;2023-06-26T02:57:38;101351.46;;;13.79;86.97
49463;BME280;35357;51.722;0.500;2023-06-26T03:00:05;101355.53;;;14.41;85.69
49463;BME280;35357;51.722;0.500;2023-06-26T03:02:33;101361.83;;;14.23;88.61
49463;BME280;35357;51.722;0.500;2023-06-26T03:05:00;101367.30;;;13.75;89.37
49463;BME280;35357;51.722;0.500;2023-06-26T03:07:27;101367.45;;;13.73;89.38
49463;BME280;35357;51.722;0.500;2023-06-26T03:09:53;101370.91;;;14.56;88.06
49463;BME280;35357;51.722;0.500;2023-06-26T03:12:20;101378.97;;;14.13;87.37
49463;BME280;35357;51.722;0.500;2023-06-26T03:14:47;101378.29;;;14.20;86.99
49463;BME280;35357;51.722;0.500;2023-06-26T03:17:14;101379.68;;;14.13;87.76
49463;BME280;35357;51.722;0.500;2023-06-26T03:19:40;101382.89;;;14.76;85.45
49463;BME280;35357;51.722;0.500;2023-06-26T03:22:07;101376.40;;;13.64;91.03
49463;BME280;35357;51.722;0.500;2023-06-26T03:24:34;101372.33;;;13.72;90.83
49463;BME280;35357;51.722;0.500;2023-06-26T03:27:01;101370.04;;;14.57;88.02
49463;BME280;35357;51.722;0.500;2023-06-26T03:29:28;101368.16;;;13.55;91.46
49463;BME280;35357;51.722;0.500;2023-06-26T03:31:55;101369.45;;;13.21;92.75
49463;BME280;35357;51.722;0.500;2023-06-26T03:34:22;101377.88;;;14.98;86.11
49463;BME280;35357;51.722;0.500;2023-06-26T03:36:49;101378.41;;;13.92;88.64
49463;BME280;35357;51.722;0.500;2023-06-26T03:39:16;101391.26;;;14.19;88.46
49463;BME280;35357;51.722;0.500;2023-06-26T03:41:43;101394.21;;;13.81;89.22
49463;BME280;35357;51.722;0.500;2023-06-26T03:44:09;101389.08;;;13.88;90.72
49463;BME280;35357;51.722;0.500;2023-06-26T03:46:36;101396.12;;;13.91;90.57
49463;BME280;35357;51.722;0.500;2023-06-26T03:49:03;101403.50;;;14.17;88.57
49463;BME280;35357;51.722;0.500;2023-06-26T03:51:30;101406.49;;;14.55;86.82
49463;BME280;35357;51.722;0.500;2023-06-26T03:53:57;101407.63;;;14.37;88.08
49463;BME280;35357;51.722;0.500;2023-06-26T03:56:23;101408.15;;;14.24;89.70
49463;BME280;35357;51.722;0.500;2023-06-26T03:58:50;101413.81;;;14.54;86.66
49463;BME280;35357;51.722;0.500;2023-06-26T04:01:17;101413.34;;;14.18;89.43
49463;BME280;35357;51.722;0.500;2023-06-26T04:03:45;101413.77;;;14.63;85.85
49463;BME280;35357;51.722;0.500;2023-06-26T04:06:12;101413.25;;;13.66;91.13
49463;BME280;35357;51.722;0.500;2023-06-26T04:08:38;101413.97;;;14.53;87.41
49463;BME280;35357;51.722;0.500;2023-06-26T04:11:05;101415.89;;;14.56;86.64
49463;BME280;35357;51.722;0.500;2023-06-26T04:13:33;101418.98;;;15.17;83.80
49463;BME280;35357;51.722;0.500;2023-06-26T04:16:00;101425.93;;;15.32;83.56
49463;BME280;35357;51.722;0.500;2023-06-26T04:18:27;101432.04;;;15.49;82.46
49463;BME280;35357;51.722;0.500;2023-06-26T04:21:10;101433.70;;;15.06;83.89
49463;BME280;35357;51.722;0.500;2023-06-26T04:23:39;101432.44;;;15.79;81.67
49463;BME280;35357;51.722;0.500;2023-06-26T04:26:07;101442.12;;;14.82;85.46
49463;BME280;35357;51.722;0.500;2023-06-26T04:28:35;101442.96;;;14.92;84.93
49463;BME280;35357;51.722;0.500;2023-06-26T04:31:03;101445.16;;;15.59;83.06
49463;BME280;35357;51.722;0.500;2023-06-26T04:33:30;101450.52;;;15.35;83.47
49463;BME280;35357;51.722;0.500;2023-06-26T04:35:57;101450.29;;;15.33;83.58
49463;BME280;35357;51.722;0.500;2023-06-26T04:38:24;101456.05;;;14.53;87.36
49463;BME280;35357;51.722;0.500;2023-06-26T04:40:51;101451.61;;;14.10;88.06
49463;BME280;35357;51.722;0.500;2023-06-26T04:43:17;101454.46;;;14.20;88.76
49463;BME280;35357;51.722;0.500;2023-06-26T04:45:45;101450.94;;;15.23;84.31
49463;BME280;35357;51.722;0.500;2023-06-26T04:48:12;101448.34;;;14.99;84.48
49463;BME280;35357;51.722;0.500;2023-06-26T04:50:40;101444.18;;;14.78;85.44
49463;BME280;35357;51.722;0.500;2023-06-26T04:53:07;101450.48;;;14.91;87.46
49463;BME280;35357;51.722;0.500;2023-06-26T04:55:34;101457.53;;;14.40;87.47
49463;BME280;35357;51.722;0.500;2023-06-26T04:58:01;101466.96;;;13.85;90.13
49463;BME280;35357;51.722;0.500;2023-06-26T05:00:28;101467.08;;;14.87;87.04
49463;BME280;35357;51.722;0.500;2023-06-26T05:02:55;101464.23;;;15.47;84.10
49463;BME280;35357;51.722;0.500;2023-06-26T05:05:21;101458.00;;;15.22;85.51
49463;BME280;35357;51.722;0.500;2023-06-26T05:07:48;101455.68;;;15.79;82.49
49463;BME280;35357;51.722;0.500;2023-06-26T05:10:15;101462.75;;;16.25;80.92
49463;BME280;35357;51.722;0.500;2023-06-26T05:12:42;101466.42;;;15.89;81.40
49463;BME280;35357;51.722;0.500;2023-06-26T05:15:10;101471.10;;;15.70;82.39
49463;BME280;35357;51.722;0.500;2023-06-26T05:17:37;101475.71;;;15.44;84.64
49463;BME280;35357;51.722;0.500;2023-06-26T05:20:05;101469.50;;;15.71;81.66
49463;BME280;35357;51.722;0.500;2023-06-26T05:22:32;101478.41;;;15.47;83.38
49463;BME280;35357;51.722;0.500;2023-06-26T05:25:00;101479.21;;;16.27;81.86
49463;BME280;35357;51.722;0.500;2023-06-26T05:27:30;101488.27;;;15.45;84.25
49463;BME280;35357;51.722;0.500;2023-06-26T05:29:58;101489.32;;;14.78;87.10
49463;BME280;35357;51.722;0.500;2023-06-26T05:32:25;101492.15;;;15.58;83.24
49463;BME280;35357;51.722;0.500;2023-06-26T05:34:54;101497.92;;;15.63;83.14
49463;BME280;35357;51.722;0.500;2023-06-26T05:37:22;101495.25;;;14.72;85.75
49463;BME280;35357;51.722;0.500;2023-06-26T05:39:49;101495.58;;;14.71;87.75
49463;BME280;35357;51.722;0.500;2023-06-26T05:42:17;101494.01;;;14.56;88.96
49463;BME280;35357;51.722;0.500;2023-06-26T05:44:44;101495.15;;;15.28;84.63
49463;BME280;35357;51.722;0.500;2023-06-26T05:47:11;101497.54;;;15.25;84.83
49463;BME280;35357;51.722;0.500;2023-06-26T05:49:38;101508.27;;;14.87;87.66
49463;BME280;35357;51.722;0.500;2023-06-26T05:52:06;101512.37;;;15.32;86.72
49463;BME280;35357;51.722;0.500;2023-06-26T05:54:34;101518.48;;;16.10;82.90
49463;BME280;35357;51.722;0.500;2023-06-26T05:57:02;101519.08;;;15.96;83.17
49463;BME280;35357;51.722;0.500;2023-06-26T05:59:31;101513.80;;;15.25;86.85
49463;BME280;35357;51.722;0.500;2023-06-26T06:01:59;101518.66;;;15.39;85.39
49463;BME280;35357;51.722;0.500;2023-06-26T06:04:25;101523.65;;;15.23;85.55
49463;BME280;35357;51.722;0.500;2023-06-26T06:06:52;101528.55;;;15.72;84.01
49463;BME280;35357;51.722;0.500;2023-06-26T06:09:19;101526.90;;;15.19;86.22
49463;BME280;35357;51.722;0.500;2023-06-26T06:11:46;101528.14;;;14.53;89.88
49463;BME280;35357;51.722;0.500;2023-06-26T06:14:13;101529.96;;;15.01;88.53
49463;BME280;35357;51.722;0.500;2023-06-26T06:16:40;101524.63;;;14.83;89.66
49463;BME280;35357;51.722;0.500;2023-06-26T06:19:07;101525.48;;;15.08;87.82
49463;BME280;35357;51.722;0.500;2023-06-26T06:21:34;101524.47;;;15.47;86.29
49463;BME280;35357;51.722;0.500;2023-06-26T06:24:02;101525.20;;;15.51;85.60
49463;BME280;35357;51.722;0.500;2023-06-26T06:26:29;101524.00;;;15.16;86.75
49463;BME280;35357;51.722;0.500;2023-06-26T06:28:56;101525.37;;;15.07;85.98
49463;BME280;35357;51.722;0.500;2023-06-26T06:31:22;101527.81;;;14.80;87.13
49463;BME280;35357;51.722;0.500;2023-06-26T06:33:49;101534.92;;;14.74;88.00
49463;BME280;35357;51.722;0.500;2023-06-26T06:36:16;101535.21;;;14.42;90.54
49463;BME280;35357;51.722;0.500;2023-06-26T06:38:43;101539.84;;;15.28;87.37
49463;BME280;35357;51.722;0.500;2023-06-26T06:41:10;101542.36;;;15.63;85.62
49463;BME280;35357;51.722;0.500;2023-06-26T06:43:37;101541.96;;;16.01;84.85
49463;BME280;35357;51.722;0.500;2023-06-26T06:46:04;101552.69;;;16.18;83.26
49463;BME280;35357;51.722;0.500;2023-06-26T06:48:31;101553.16;;;15.68;84.00
49463;BME280;35357;51.722;0.500;2023-06-26T06:50:58;101561.34;;;16.46;81.06
49463;BME280;35357;51.722;0.500;2023-06-26T06:53:25;101555.75;;;14.95;86.03
49463;BME280;35357;51.722;0.500;2023-06-26T06:55:52;101559.34;;;15.28;85.85
49463;BME280;35357;51.722;0.500;2023-06-26T06:58:19;101563.43;;;15.82;83.92
49463;BME280;35357;51.722;0.500;2023-06-26T07:00:46;101566.78;;;15.76;83.95
49463;BME280;35357;51.722;0.500;2023-06-26T07:03:14;101566.02;;;16.02;83.24
49463;BME280;35357;51.722;0.500;2023-06-26T07:05:42;101571.14;;;16.34;81.45
49463;BME280;35357;51.722;0.500;2023-06-26T07:08:09;101562.02;;;17.12;78.91
49463;BME280;35357;51.722;0.500;2023-06-26T07:10:37;101563.27;;;17.09;77.29
49463;BME280;35357;51.722;0.500;2023-06-26T07:13:04;101564.17;;;17.02;78.11
49463;BME280;35357;51.722;0.500;2023-06-26T07:15:32;101567.51;;;17.06;75.92
49463;BME280;35357;51.722;0.500;2023-06-26T07:17:59;101565.12;;;16.35;79.16
49463;BME280;35357;51.722;0.500;2023-06-26T07:20:26;101563.68;;;15.28;81.99
49463;BME280;35357;51.722;0.500;2023-06-26T07:22:53;101560.71;;;16.36;77.92
49463;BME280;35357;51.722;0.500;2023-06-26T07:25:20;101562.09;;;16.33;80.70
49463;BME280;35357;51.722;0.500;2023-06-26T07:27:47;101564.19;;;16.21;79.63
49463;BME280;35357;51.722;0.500;2023-06-26T07:30:13;101561.45;;;17.02;76.58
49463;BME280;35357;51.722;0.500;2023-06-26T07:32:40;101560.38;;;16.81;75.62
49463;BME280;35357;51.722;0.500;2023-06-26T07:35:07;101565.51;;;17.76;71.57
49463;BME280;35357;51.722;0.500;2023-06-26T07:37:34;101572.17;;;17.78;70.48
49463;BME280;35357;51.722;0.500;2023-06-26T07:40:01;101577.41;;;17.56;72.15
49463;BME280;35357;51.722;0.500;2023-06-26T07:42:27;101575.12;;;17.65;71.34
49463;BME280;35357;51.722;0.500;2023-06-26T07:44:54;101576.42;;;17.04;74.94
49463;BME280;35357;51.722;0.500;2023-06-26T07:47:21;101585.92;;;17.97;71.60
49463;BME280;35357;51.722;0.500;2023-06-26T07:49:48;101587.92;;;17.40;70.10
49463;BME280;35357;51.722;0.500;2023-06-26T07:52:15;101583.10;;;17.09;71.07
49463;BME280;35357;51.722;0.500;2023-06-26T07:54:42;101593.52;;;17.04;72.94
49463;BME280;35357;51.722;0.500;2023-06-26T07:57:09;101592.62;;;17.13;70.93
49463;BME280;35357;51.722;0.500;2023-06-26T07:59:36;101600.44;;;17.19;71.14
49463;BME280;35357;51.722;0.500;2023-06-26T08:02:04;101601.99;;;17.32;69.44
49463;BME280;35357;51.722;0.500;2023-06-26T08:04:31;101594.53;;;17.61;68.78
49463;BME280;35357;51.722;0.500;2023-06-26T08:06:59;101599.98;;;17.12;68.26
49463;BME280;35357;51.722;0.500;2023-06-26T08:09:27;101594.02;;;17.40;67.32
49463;BME280;35357;51.722;0.500;2023-06-26T08:11:55;101592.94;;;18.59;64.80
49463;BME280;35357;51.722;0.500;2023-06-26T08:14:23;101594.10;;;18.42;63.86
49463;BME280;35357;51.722;0.500;2023-06-26T08:16:50;101597.34;;;18.51;62.75
49463;BME280;35357;51.722;0.500;2023-06-26T08:19:18;101602.11;;;18.99;60.52
49463;BME280;35357;51.722;0.500;2023-06-26T08:21:46;101600.22;;;18.33;60.06
49463;BME280;35357;51.722;0.500;2023-06-26T08:24:14;101591.52;;;19.01;58.68
49463;BME280;35357;51.722;0.500;2023-06-26T08:26:41;101590.06;;;19.21;58.26
49463;BME280;35357;51.722;0.500;2023-06-26T08:29:09;101592.16;;;18.72;58.85
49463;BME280;35357;51.722;0.500;2023-06-26T08:31:36;101596.55;;;19.30;58.28
49463;BME280;35357;51.722;0.500;2023-06-26T08:34:04;101591.61;;;18.97;59.00
49463;BME280;35357;51.722;0.500;2023-06-26T08:36:31;101597.82;;;18.82;59.80
49463;BME280;35357;51.722;0.500;2023-06-26T08:38:59;101592.89;;;19.42;56.65
49463;BME280;35357;51.722;0.500;2023-06-26T08:41:26;101596.52;;;18.85;55.89
49463;BME280;35357;51.722;0.500;2023-06-26T08:43:54;101591.94;;;20.10;54.15
49463;BME280;35357;51.722;0.500;2023-06-26T08:46:20;101596.07;;;19.58;54.68
49463;BME280;35357;51.722;0.500;2023-06-26T08:48:55;101601.56;;;19.98;52.37
49463;BME280;35357;51.722;0.500;2023-06-26T08:51:24;101600.73;;;19.59;53.27
49463;BME280;35357;51.722;0.500;2023-06-26T08:53:56;101607.15;;;19.72;52.82
49463;BME280;35357;51.722;0.500;2023-06-26T08:56:27;101616.49;;;19.04;52.63
49463;BME280;35357;51.722;0.500;2023-06-26T08:58:55;101617.96;;;20.48;48.62
49463;BME280;35357;51.722;0.500;2023-06-26T09:01:22;101623.09;;;19.06;52.39
49463;BME280;35357;51.722;0.500;2023-06-26T09:03:50;101617.51;;;19.95;52.62
49463;BME280;35357;51.722;0.500;2023-06-26T09:06:18;101613.10;;;19.16;52.89
49463;BME280;35357;51.722;0.500;2023-06-26T09:08:45;101616.12;;;19.13;52.16
49463;BME280;35357;51.722;0.500;2023-06-26T09:11:12;101622.11;;;19.58;53.03
49463;BME280;35357;51.722;0.500;2023-06-26T09:13:40;101617.45;;;19.09;53.38
49463;BME280;35357;51.722;0.500;2023-06-26T09:16:07;101621.48;;;19.24;52.87
49463;BME280;35357;51.722;0.500;2023-06-26T09:18:35;101628.88;;;19.45;52.89
49463;BME280;35357;51.722;0.500;2023-06-26T09:21:07;101629.65;;;18.54;54.27
49463;BME280;35357;51.722;0.500;2023-06-26T09:23:35;101641.84;;;19.01;51.44
49463;BME280;35357;51.722;0.500;2023-06-26T09:26:03;101637.89;;;19.38;52.46
49463;BME280;35357;51.722;0.500;2023-06-26T09:28:30;101637.81;;;18.97;54.40
49463;BME280;35357;51.722;0.500;2023-06-26T09:31:01;101641.95;;;18.45;54.87
49463;BME280;35357;51.722;0.500;2023-06-26T09:33:33;101640.67;;;20.44;53.06
49463;BME280;35357;51.722;0.500;2023-06-26T09:36:00;101640.67;;;19.73;52.99
49463;BME280;35357;51.722;0.500;2023-06-26T09:38:27;101642.44;;;19.58;53.52
49463;BME280;35357;51.722;0.500;2023-06-26T09:40:55;101649.58;;;19.03;54.94
49463;BME280;35357;51.722;0.500;2023-06-26T09:43:22;101650.47;;;19.71;55.08
49463;BME280;35357;51.722;0.500;2023-06-26T09:45:50;101644.36;;;19.67;52.92
49463;BME280;35357;51.722;0.500;2023-06-26T09:48:19;101649.85;;;18.66;53.29
49463;BME280;35357;51.722;0.500;2023-06-26T09:50:46;101646.47;;;19.46;50.65
49463;BME280;35357;51.722;0.500;2023-06-26T09:53:14;101660.92;;;19.07;52.23
49463;BME280;35357;51.722;0.500;2023-06-26T09:55:42;101663.55;;;19.28;53.33
49463;BME280;35357;51.722;0.500;2023-06-26T09:58:10;101655.47;;;20.19;50.74
49463;BME280;35357;51.722;0.500;2023-06-26T10:00:37;101660.57;;;19.45;51.63
49463;BME280;35357;51.722;0.500;2023-06-26T10:03:04;101654.66;;;19.42;51.39
49463;BME280;35357;51.722;0.500;2023-06-26T10:05:31;101654.14;;;19.45;50.85
49463;BME280;35357;51.722;0.500;2023-06-26T10:07:59;101659.19;;;20.12;51.21
49463;BME280;35357;51.722;0.500;2023-06-26T10:10:27;101653.99;;;18.85;53.93
49463;BME280;35357;51.722;0.500;2023-06-26T10:13:00;101658.66;;;19.35;51.97
49463;BME280;35357;51.722;0.500;2023-06-26T10:15:31;101659.76;;;21.06;47.72
49463;BME280;35357;51.722;0.500;2023-06-26T10:17:59;101656.25;;;20.21;43.61
49463;BME280;35357;51.722;0.500;2023-06-26T10:20:26;101672.78;;;20.27;42.44
49463;BME280;35357;51.722;0.500;2023-06-26T10:22:55;101673.63;;;20.49;41.92
49463;BME280;35357;51.722;0.500;2023-06-26T10:25:25;101664.30;;;19.85;42.71
49463;BME280;35357;51.722;0.500;2023-06-26T10:27:55;101667.19;;;20.74;43.68
49463;BME280;35357;51.722;0.500;2023-06-26T10:30:27;101674.50;;;20.30;43.77
49463;BME280;35357;51.722;0.500;2023-06-26T10:32:55;101672.43;;;20.53;42.21
49463;BME280;35357;51.722;0.500;2023-06-26T10:35:24;101668.43;;;20.44;42.51
49463;BME280;35357;51.722;0.500;2023-06-26T10:37:51;101674.27;;;20.71;42.48
49463;BME280;35357;51.722;0.500;2023-06-26T10:40:24;101681.30;;;19.68;41.66
49463;BME280;35357;51.722;0.500;2023-06-26T10:43:05;101678.26;;;19.88;42.10
49463;BME280;35357;51.722;0.500;2023-06-26T10:45:34;101677.22;;;19.99;41.62
49463;BME280;35357;51.722;0.500;2023-06-26T10:48:01;101677.92;;;19.34;43.55
49463;BME280;35357;51.722;0.500;2023-06-26T10:50:29;101684.45;;;20.03;43.37
49463;BME280;35357;51.722;0.500;2023-06-26T10:53:15;101685.69;;;21.14;40.95
49463;BME280;35357;51.722;0.500;2023-06-26T10:55:43;101680.08;;;21.99;41.17
49463;BME280;35357;51.722;0.500;2023-06-26T10:58:28;101686.66;;;21.95;38.51
49463;BME280;35357;51.722;0.500;2023-06-26T11:01:16;101692.80;;;21.61;36.86
49463;BME280;35357;51.722;0.500;2023-06-26T11:03:46;101689.18;;;22.09;36.16
49463;BME280;35357;51.722;0.500;2023-06-26T11:06:15;101693.61;;;21.50;36.78
49463;BME280;35357;51.722;0.500;2023-06-26T11:08:46;101687.69;;;22.04;37.48
49463;BME280;35357;51.722;0.500;2023-06-26T11:11:13;101701.41;;;20.83;38.53
49463;BME280;35357;51.722;0.500;2023-06-26T11:13:41;101700.00;;;21.60;39.70
49463;BME280;35357;51.722;0.500;2023-06-26T11:16:08;101692.63;;;21.42;39.33
49463;BME280;35357;51.722;0.500;2023-06-26T11:18:35;101695.52;;;20.55;39.35
49463;BME280;35357;51.722;0.500;2023-06-26T11:21:05;101689.18;;;21.49;40.39
49463;BME280;35357;51.722;0.500;2023-06-26T11:23:35;101691.92;;;21.20;37.87
49463;BME280;35357;51.722;0.500;2023-06-26T11:26:19;101691.73;;;21.61;37.33
49463;BME280;35357;51.722;0.500;2023-06-26T11:28:48;101677.84;;;22.01;35.02
49463;BME280;35357;51.722;0.500;2023-06-26T11:31:33;101684.19;;;22.62;35.53
49463;BME280;35357;51.722;0.500;2023-06-26T11:34:03;101701.89;;;21.89;35.07
49463;BME280;35357;51.722;0.500;2023-06-26T11:36:31;101703.10;;;22.56;34.47
49463;BME280;35357;51.722;0.500;2023-06-26T11:39:01;101697.71;;;22.79;35.07
49463;BME280;35357;51.722;0.500;2023-06-26T11:41:29;101707.40;;;22.42;33.91
49463;BME280;35357;51.722;0.500;2023-06-26T11:44:00;101706.30;;;21.54;34.59
49463;BME280;35357;51.722;0.500;2023-06-26T11:46:28;101714.52;;;20.87;34.27
49463;BME280;35357;51.722;0.500;2023-06-26T11:48:56;101710.79;;;21.45;33.72
49463;BME280;35357;51.722;0.500;2023-06-26T11:51:23;101715.70;;;22.07;33.17
49463;BME280;35357;51.722;0.500;2023-06-26T11:53:52;101708.69;;;22.39;32.63
49463;BME280;35357;51.722;0.500;2023-06-26T11:56:19;101707.45;;;22.74;33.22
49463;BME280;35357;51.722;0.500;2023-06-26T11:59:03;101706.00;;;22.06;33.44
49463;BME280;35357;51.722;0.500;2023-06-26T12:01:33;101706.17;;;22.88;34.11
49463;BME280;35357;51.722;0.500;2023-06-26T12:04:02;101715.68;;;22.79;33.62
49463;BME280;35357;51.722;0.500;2023-06-26T12:06:31;101726.80;;;20.76;35.49
49463;BME280;35357;51.722;0.500;2023-06-26T12:09:01;101734.77;;;20.77;35.73
49463;BME280;35357;51.722;0.500;2023-06-26T12:11:29;101731.25;;;20.24;37.13
49463;BME280;35357;51.722;0.500;2023-06-26T12:13:57;101736.85;;;20.41;36.37
49463;BME280;35357;51.722;0.500;2023-06-26T12:16:25;101736.10;;;20.37;36.14
49463;BME280;35357;51.722;0.500;2023-06-26T12:18:58;101734.00;;;20.56;35.76
49463;BME280;35357;51.722;0.500;2023-06-26T12:21:44;101735.92;;;20.21;36.75
49463;BME280;35357;51.722;0.500;2023-06-26T12:24:15;101737.75;;;20.02;36.58
49463;BME280;35357;51.722;0.500;2023-06-26T12:26:43;101738.98;;;21.55;35.68
49463;BME280;35357;51.722;0.500;2023-06-26T12:29:12;101729.22;;;21.15;35.62
49463;BME280;35357;51.722;0.500;2023-06-26T12:31:40;101738.39;;;21.61;35.58
49463;BME280;35357;51.722;0.500;2023-06-26T12:34:10;101734.08;;;21.43;34.62
49463;BME280;35357;51.722;0.500;2023-06-26T12:36:40;101728.68;;;21.84;35.36
49463;BME280;35357;51.722;0.500;2023-06-26T12:39:09;101728.90;;;22.07;33.76
49463;BME280;35357;51.722;0.500;2023-06-26T12:41:44;101735.27;;;21.56;34.48
49463;BME280;35357;51.722;0.500;2023-06-26T12:44:20;101728.74;;;22.48;35.68
49463;BME280;35357;51.722;0.500;2023-06-26T12:46:48;101725.90;;;22.52;35.36
49463;BME280;35357;51.722;0.500;2023-06-26T12:49:16;101730.31;;;22.98;34.39
49463;BME280;35357;51.722;0.500;2023-06-26T12:51:43;101730.84;;;21.58;36.04
49463;BME280;35357;51.722;0.500;2023-06-26T12:54:10;101725.57;;;23.18;35.25